createdAt,value
2018-08-27T00:01:34.269Z,99843.28
2018-08-27T00:04:00.240Z,99850.66
2018-08-27T00:06:26.205Z,99842.27
2018-08-27T00:08:52.154Z,99843.31
2018-08-27T00:11:18.129Z,99842.06
2018-08-27T00:13:44.080Z,99843.82
2018-08-27T00:16:10.027Z,99847.52
2018-08-27T00:18:36.004Z,99850.98
2018-08-27T00:21:01.964Z,99843.94
2018-08-27T00:23:27.915Z,99841.37
2018-08-27T00:25:53.861Z,99843.08
2018-08-27T00:28:19.785Z,99837.52
2018-08-27T00:30:45.737Z,99834.37
2018-08-27T00:33:11.668Z,99834.39
2018-08-27T00:35:37.676Z,99834.02
2018-08-27T00:38:03.613Z,99832.52
2018-08-27T00:40:29.553Z,99834.86
2018-08-27T00:42:55.493Z,99830.48
2018-08-27T00:45:21.448Z,99833.20
2018-08-27T00:47:47.423Z,99832.98
2018-08-27T00:50:13.366Z,99832.78
2018-08-27T00:52:39.359Z,99836.01
2018-08-27T00:55:05.315Z,99833.59
2018-08-27T00:57:31.269Z,99834.36
2018-08-27T00:59:57.238Z,99832.70
2018-08-27T01:02:23.198Z,99830.53
2018-08-27T01:04:49.148Z,99833.08
2018-08-27T01:07:15.128Z,99824.08
2018-08-27T01:09:41.265Z,99827.02
2018-08-27T01:12:07.239Z,99826.30
2018-08-27T01:14:33.173Z,99828.23
2018-08-27T01:16:59.148Z,99826.14
2018-08-27T01:19:25.105Z,99823.16
2018-08-27T01:21:51.089Z,99820.52
2018-08-27T01:24:17.047Z,99817.12
2018-08-27T01:26:43.008Z,99820.27
2018-08-27T01:29:08.963Z,99821.16
2018-08-27T01:31:35.994Z,99816.69
2018-08-27T01:34:01.951Z,99813.80
2018-08-27T01:36:27.912Z,99811.33
2018-08-27T01:38:53.843Z,99814.60
2018-08-27T01:41:19.844Z,99814.39
2018-08-27T01:43:45.812Z,99812.34
2018-08-27T01:46:11.757Z,99814.69
2018-08-27T01:48:37.707Z,99807.67
2018-08-27T01:51:03.634Z,99811.67
2018-08-27T01:53:29.566Z,99809.50
2018-08-27T01:55:55.508Z,99811.97
2018-08-27T01:58:21.444Z,99812.25
2018-08-27T02:00:47.390Z,99806.17
2018-08-27T02:03:13.334Z,99803.84
2018-08-27T02:05:39.276Z,99800.86
2018-08-27T02:08:05.242Z,99797.45
2018-08-27T02:10:31.192Z,99797.87
2018-08-27T02:12:57.127Z,99798.89
2018-08-27T02:15:23.101Z,99795.78
2018-08-27T02:17:49.039Z,99792.27
2018-08-27T02:20:14.981Z,99789.45
2018-08-27T02:22:40.912Z,99792.56
2018-08-27T02:25:06.901Z,99793.66
2018-08-27T02:27:32.855Z,99790.81
2018-08-27T02:29:58.786Z,99789.50
2018-08-27T02:32:24.733Z,99782.67
2018-08-27T02:34:50.686Z,99776.55
2018-08-27T02:37:16.658Z,99778.77
2018-08-27T02:39:42.596Z,99781.48
2018-08-27T02:42:08.544Z,99774.08
2018-08-27T02:44:34.492Z,99780.85
2018-08-27T02:47:00.452Z,99779.58
2018-08-27T02:49:26.417Z,99777.23
2018-08-27T02:51:52.357Z,99784.94
2018-08-27T02:54:18.293Z,99778.89
2018-08-27T02:56:44.230Z,99782.34
2018-08-27T02:59:10.159Z,99778.94
2018-08-27T03:01:36.090Z,99777.14
2018-08-27T03:04:02.050Z,99780.25
2018-08-27T03:06:28.025Z,99780.84
2018-08-27T03:08:53.964Z,99778.30
2018-08-27T03:11:19.924Z,99776.69
2018-08-27T03:13:45.955Z,99777.83
2018-08-27T03:16:11.896Z,99779.33
2018-08-27T03:18:37.849Z,99773.30
2018-08-27T03:21:03.803Z,99771.89
2018-08-27T03:23:29.748Z,99772.89
2018-08-27T03:25:55.768Z,99765.08
2018-08-27T03:28:21.748Z,99770.13
2018-08-27T03:30:47.693Z,99770.84
2018-08-27T03:33:13.654Z,99760.94
2018-08-27T03:35:39.629Z,99767.52
2018-08-27T03:38:05.593Z,99763.68
2018-08-27T03:45:34.429Z,99761.35
2018-08-27T03:48:01.511Z,99761.09
2018-08-27T03:50:30.475Z,99753.44
2018-08-27T03:52:58.837Z,99755.52
2018-08-27T03:55:25.715Z,99752.42
2018-08-27T03:57:52.868Z,99751.09
2018-08-27T04:00:19.125Z,99758.41
2018-08-27T04:02:48.398Z,99752.59
2018-08-27T04:05:18.091Z,99753.91
2018-08-27T04:07:45.060Z,99752.67
2018-08-27T04:10:16.813Z,99748.24
2018-08-27T04:12:44.393Z,99755.56
2018-08-27T04:15:13.007Z,99752.16
2018-08-27T04:17:40.463Z,99754.08
2018-08-27T04:20:08.704Z,99758.28
2018-08-27T04:22:39.364Z,99757.20
2018-08-27T04:25:06.694Z,99761.69
2018-08-27T04:27:33.165Z,99763.70
2018-08-27T04:29:59.866Z,99763.91
2018-08-27T04:32:26.879Z,99768.05
2018-08-27T04:34:53.426Z,99770.34
2018-08-27T04:37:21.414Z,99773.55
2018-08-27T04:39:49.106Z,99769.77
2018-08-27T04:42:16.384Z,99764.45
2018-08-27T04:44:43.582Z,99765.52
2018-08-27T04:49:58.467Z,99759.61
2018-08-27T04:52:24.642Z,99757.98
2018-08-27T04:54:51.795Z,99758.25
2018-08-27T04:57:19.498Z,99763.23
2018-08-27T04:59:48.807Z,99760.34
2018-08-27T05:04:49.972Z,99759.05
2018-08-27T05:07:17.078Z,99752.95
2018-08-27T05:09:43.305Z,99762.27
2018-08-27T05:12:10.709Z,99757.05
2018-08-27T05:14:36.859Z,99769.17
2018-08-27T05:17:04.621Z,99755.56
2018-08-27T05:19:31.705Z,99760.77
2018-08-27T05:21:58.673Z,99763.83
2018-08-27T05:24:24.834Z,99763.83
2018-08-27T05:26:50.985Z,99758.33
2018-08-27T05:29:19.017Z,99759.06
2018-08-27T05:31:46.227Z,99757.19
2018-08-27T05:34:13.322Z,99766.65
2018-08-27T05:36:39.505Z,99759.13
2018-08-27T05:39:06.699Z,99764.80
2018-08-27T05:41:33.091Z,99760.45
2018-08-27T05:44:02.248Z,99758.30
2018-08-27T05:46:28.723Z,99752.23
2018-08-27T05:48:55.056Z,99759.30
2018-08-27T05:51:21.222Z,99753.73
2018-08-27T05:53:47.672Z,99749.73
2018-08-27T05:56:14.075Z,99754.77
2018-08-27T05:58:41.570Z,99751.23
2018-08-27T06:01:09.531Z,99750.39
2018-08-27T06:03:35.965Z,99752.45
2018-08-27T06:06:04.670Z,99752.42
2018-08-27T06:08:32.283Z,99738.93
2018-08-27T06:10:58.537Z,99753.89
2018-08-27T06:13:30.562Z,99742.13
2018-08-27T06:15:57.032Z,99733.27
2018-08-27T06:18:26.129Z,99720.52
2018-08-27T06:20:52.573Z,99722.77
2018-08-27T06:23:19.512Z,99719.75
2018-08-27T06:25:46.826Z,99721.72
2018-08-27T06:28:13.806Z,99721.42
2018-08-27T06:30:40.034Z,99717.97
2018-08-27T06:33:06.882Z,99712.27
2018-08-27T06:35:37.069Z,99710.53
2018-08-27T06:40:44.580Z,99711.63
2018-08-27T06:43:10.706Z,99706.06
2018-08-27T06:45:37.652Z,99709.16
2018-08-27T06:48:05.588Z,99701.95
2018-08-27T06:50:34.782Z,99699.00
2018-08-27T06:53:01.652Z,99701.33
2018-08-27T06:55:29.596Z,99698.23
2018-08-27T06:57:56.207Z,99702.31
2018-08-27T07:00:22.380Z,99701.02
2018-08-27T07:02:49.170Z,99700.34
2018-08-27T07:05:15.606Z,99700.27
2018-08-27T07:07:41.744Z,99701.69
2018-08-27T07:10:10.422Z,99699.98
2018-08-27T07:12:37.290Z,99699.03
2018-08-27T07:15:04.830Z,99697.97
2018-08-27T07:17:33.837Z,99687.38
2018-08-27T07:20:00.080Z,99682.44
2018-08-27T07:22:26.190Z,99681.23
2018-08-27T07:24:52.929Z,99683.23
2018-08-27T07:27:19.108Z,99685.28
2018-08-27T07:29:45.246Z,99689.30
2018-08-27T07:32:12.013Z,99675.73
2018-08-27T07:34:38.955Z,99682.83
2018-08-27T07:37:05.663Z,99681.83
2018-08-27T07:39:31.802Z,99680.02
2018-08-27T07:41:57.994Z,99672.48
2018-08-27T07:44:25.160Z,99677.08
2018-08-27T07:46:53.075Z,99673.54
2018-08-27T07:49:20.118Z,99659.22
2018-08-27T07:51:46.325Z,99661.83
2018-08-27T07:54:14.809Z,99658.86
2018-08-27T07:56:44.221Z,99662.04
2018-08-27T07:59:12.182Z,99657.02
2018-08-27T08:01:41.510Z,99658.52
2018-08-27T08:04:09.202Z,99648.44
2018-08-27T08:06:37.015Z,99658.40
2018-08-27T08:09:04.382Z,99653.20
2018-08-27T08:11:30.805Z,99650.61
2018-08-27T08:13:57.041Z,99659.84
2018-08-27T08:16:24.333Z,99660.97
2018-08-27T08:18:52.977Z,99667.48
2018-08-27T08:21:21.047Z,99659.79
2018-08-27T08:23:47.992Z,99671.53
2018-08-27T08:26:15.553Z,99663.84
2018-08-27T08:28:42.256Z,99667.55
2018-08-27T08:31:09.139Z,99676.31
2018-08-27T08:33:35.372Z,99678.88
2018-08-27T08:36:01.692Z,99671.09
2018-08-27T08:38:31.508Z,99666.20
2018-08-27T08:40:57.802Z,99670.74
2018-08-27T08:43:25.903Z,99660.25
2018-08-27T08:45:53.216Z,99658.55
2018-08-27T08:48:20.327Z,99664.52
2018-08-27T08:50:47.277Z,99654.83
2018-08-27T08:53:13.785Z,99653.91
2018-08-27T08:55:42.386Z,99651.35
2018-08-27T08:58:13.121Z,99643.71
2018-08-27T09:00:39.329Z,99649.00
2018-08-27T09:03:05.486Z,99653.64
2018-08-27T09:05:33.217Z,99644.44
2018-08-27T09:08:00.683Z,99642.37
2018-08-27T09:10:28.176Z,99642.02
2018-08-27T09:12:54.300Z,99640.64
2018-08-27T09:15:22.082Z,99635.84
2018-08-27T09:17:49.515Z,99643.25
2018-08-27T09:20:15.648Z,99631.47
2018-08-27T09:22:41.832Z,99630.59
2018-08-27T09:25:08.272Z,99630.84
2018-08-27T09:27:35.763Z,99630.94
2018-08-27T09:30:02.775Z,99635.79
2018-08-27T09:32:29.144Z,99635.08
2018-08-27T09:34:56.789Z,99627.85
2018-08-27T09:37:23.124Z,99622.76
2018-08-27T09:39:50.132Z,99621.63
2018-08-27T09:42:17.384Z,99618.21
2018-08-27T09:44:44.899Z,99611.34
2018-08-27T09:47:11.068Z,99606.07
2018-08-27T09:49:37.365Z,99612.80
2018-08-27T09:52:05.471Z,99608.06
2018-08-27T09:54:32.663Z,99604.73
2018-08-27T09:56:59.759Z,99598.45
2018-08-27T09:59:26.523Z,99589.08
2018-08-27T10:01:53.522Z,99600.91
2018-08-27T10:04:21.631Z,99594.66
2018-08-27T10:06:49.337Z,99594.66
2018-08-27T10:09:18.282Z,99592.67
2018-08-27T10:11:44.610Z,99588.89
2018-08-27T10:14:11.861Z,99587.43
2018-08-27T10:16:39.499Z,99580.11
2018-08-27T10:19:07.060Z,99581.43
2018-08-27T10:21:35.230Z,99578.58
2018-08-27T10:24:03.120Z,99585.92
2018-08-27T10:26:30.008Z,99588.55
2018-08-27T10:28:58.941Z,99577.52
2018-08-27T10:31:25.288Z,99576.95
2018-08-27T10:33:51.996Z,99580.05
2018-08-27T10:36:19.481Z,99579.78
2018-08-27T10:38:47.449Z,99580.03
2018-08-27T10:41:14.439Z,99588.91
2018-08-27T10:43:41.445Z,99587.34
2018-08-27T10:46:07.818Z,99580.55
2018-08-27T10:48:34.101Z,99583.36
2018-08-27T10:51:00.329Z,99569.27
2018-08-27T10:53:26.864Z,99568.20
2018-08-27T10:55:53.200Z,99580.52
2018-08-27T10:58:20.035Z,99580.83
2018-08-27T11:00:46.731Z,99582.16
2018-08-27T11:03:12.903Z,99584.16
2018-08-27T11:05:39.231Z,99587.67
2018-08-27T11:08:06.379Z,99588.42
2018-08-27T11:10:32.902Z,99582.69
2018-08-27T11:13:00.782Z,99588.30
2018-08-27T11:15:27.111Z,99587.58
2018-08-27T11:17:53.338Z,99580.83
2018-08-27T11:20:20.326Z,99576.69
2018-08-27T11:22:47.223Z,99580.11
2018-08-27T11:25:13.656Z,99578.25
2018-08-27T11:27:40.910Z,99579.40
2018-08-27T11:30:07.169Z,99576.96
2018-08-27T11:32:33.651Z,99575.94
2018-08-27T11:35:00.205Z,99576.25
2018-08-27T11:37:26.538Z,99579.41
2018-08-27T11:39:52.864Z,99580.30
2018-08-27T11:42:19.812Z,99584.83
2018-08-27T11:44:46.236Z,99576.33
2018-08-27T11:47:12.562Z,99568.41
2018-08-27T11:49:39.411Z,99571.67
2018-08-27T11:52:06.057Z,99582.69
2018-08-27T11:54:32.280Z,99572.45
2018-08-27T11:57:04.176Z,99571.35
2018-08-27T11:59:34.558Z,99564.33
2018-08-27T12:02:02.457Z,99557.66
2018-08-27T12:04:29.380Z,99564.33
2018-08-27T12:06:57.804Z,99561.08
2018-08-27T12:09:24.066Z,99557.55
2018-08-27T12:11:53.185Z,99558.37
2018-08-27T12:14:19.308Z,99551.30
2018-08-27T12:16:47.546Z,99552.00
2018-08-27T12:19:14.937Z,99555.25
2018-08-27T12:21:42.121Z,99551.37
2018-08-27T12:24:08.573Z,99540.89
2018-08-27T12:26:36.324Z,99543.11
2018-08-27T12:29:03.688Z,99541.81
2018-08-27T12:31:30.787Z,99538.13
2018-08-27T12:33:56.854Z,99541.25
2018-08-27T12:36:23.036Z,99537.86
2018-08-27T12:38:49.367Z,99531.59
2018-08-27T12:41:15.675Z,99528.27
2018-08-27T12:43:43.067Z,99526.95
2018-08-27T12:46:09.689Z,99526.42
2018-08-27T12:48:39.091Z,99523.08
2018-08-27T12:51:05.997Z,99525.00
2018-08-27T12:53:32.505Z,99517.05
2018-08-27T12:55:58.666Z,99519.97
2018-08-27T12:58:25.640Z,99511.47
2018-08-27T13:00:52.575Z,99524.56
2018-08-27T13:03:19.479Z,99523.83
2018-08-27T13:05:46.833Z,99524.33
2018-08-27T13:08:15.845Z,99516.64
2018-08-27T13:10:46.356Z,99514.02
2018-08-27T13:13:13.926Z,99513.16
2018-08-27T13:18:22.733Z,99506.78
2018-08-27T13:20:48.996Z,99506.59
2018-08-27T13:23:15.715Z,99507.71
2018-08-27T13:25:43.674Z,99511.05
2018-08-27T13:28:13.754Z,99503.91
2018-08-27T13:30:41.722Z,99503.38
2018-08-27T13:33:09.552Z,99504.52
2018-08-27T13:35:38.331Z,99504.69
2018-08-27T13:38:06.446Z,99501.39
2018-08-27T13:40:33.514Z,99500.61
2018-08-27T13:42:59.861Z,99490.56
2018-08-27T13:45:26.689Z,99500.04
2018-08-27T13:47:54.043Z,99501.42
2018-08-27T13:50:20.947Z,99496.74
2018-08-27T13:52:48.757Z,99488.43
2018-08-27T13:55:15.965Z,99495.63
2018-08-27T13:57:43.115Z,99488.75
2018-08-27T14:00:10.683Z,99481.77
2018-08-27T14:02:38.656Z,99491.48
2018-08-27T14:05:05.630Z,99483.09
2018-08-27T14:07:31.868Z,99480.98
2018-08-27T14:10:01.500Z,99484.95
2018-08-27T14:12:28.157Z,99479.52
2018-08-27T14:14:54.755Z,99489.36
2018-08-27T14:17:20.905Z,99498.78
2018-08-27T14:22:23.680Z,99492.12
2018-08-27T14:24:53.956Z,99496.73
2018-08-27T14:27:21.650Z,99494.73
2018-08-27T14:32:21.448Z,99496.70
2018-08-27T14:34:47.570Z,99500.97
2018-08-27T14:37:13.818Z,99492.33
2018-08-27T14:39:41.096Z,99491.58
2018-08-27T14:42:09.107Z,99493.62
2018-08-27T14:44:39.202Z,99489.90
2018-08-27T14:47:06.352Z,99487.14
2018-08-27T14:49:33.496Z,99486.20
2018-08-27T14:52:00.758Z,99481.98
2018-08-27T14:54:31.619Z,99485.13
2018-08-27T14:56:59.903Z,99486.78
2018-08-27T14:59:26.306Z,99482.94
2018-08-27T15:01:53.380Z,99489.30
2018-08-27T15:04:20.632Z,99485.58
2018-08-27T15:06:47.659Z,99483.23
2018-08-27T15:09:14.705Z,99488.96
2018-08-27T15:11:41.363Z,99485.45
2018-08-27T15:14:08.410Z,99490.16
2018-08-27T15:16:37.174Z,99496.34
2018-08-27T15:19:04.391Z,99489.17
2018-08-27T15:21:31.424Z,99497.91
2018-08-27T15:23:59.027Z,99503.67
2018-08-27T15:26:25.263Z,99492.78
2018-08-27T15:28:51.608Z,99499.82
2018-08-27T15:31:18.045Z,99500.09
2018-08-27T15:33:47.549Z,99503.13
2018-08-27T15:36:17.173Z,99495.30
2018-08-27T15:38:43.640Z,99502.30
2018-08-27T15:41:11.251Z,99506.88
2018-08-27T15:43:39.230Z,99504.74
2018-08-27T15:46:06.308Z,99506.68
2018-08-27T15:48:34.230Z,99512.48
2018-08-27T15:51:04.033Z,99513.72
2018-08-27T15:53:32.293Z,99511.89
2018-08-27T15:56:03.205Z,99519.73
2018-08-27T15:58:30.819Z,99511.34
2018-08-27T16:00:57.987Z,99518.94
2018-08-27T16:03:25.831Z,99522.13
2018-08-27T16:05:52.913Z,99524.83
2018-08-27T16:08:22.078Z,99527.77
2018-08-27T16:10:50.252Z,99522.96
2018-08-27T16:13:18.214Z,99521.41
2018-08-27T16:15:46.112Z,99520.77
2018-08-27T16:18:15.657Z,99520.87
2018-08-27T16:20:43.495Z,99521.71
2018-08-27T16:23:11.789Z,99519.91
2018-08-27T16:25:42.924Z,99512.72
2018-08-27T16:28:09.039Z,99514.56
2018-08-27T16:30:36.392Z,99511.88
2018-08-27T16:33:03.445Z,99515.02
2018-08-27T16:35:30.801Z,99514.29
2018-08-27T16:38:00.251Z,99515.31
2018-08-27T16:40:26.355Z,99512.30
2018-08-27T16:42:55.794Z,99516.09
2018-08-27T16:45:22.561Z,99520.77
2018-08-27T16:47:48.754Z,99519.87
2018-08-27T16:50:16.990Z,99517.35
2018-08-27T16:52:44.550Z,99521.31
2018-08-27T16:57:42.826Z,99526.70
2018-08-27T17:00:09.109Z,99524.95
2018-08-27T17:02:38.058Z,99529.08
2018-08-27T17:05:06.024Z,99529.80
2018-08-27T17:07:33.507Z,99530.55
2018-08-27T17:10:02.999Z,99533.16
2018-08-27T17:12:31.496Z,99529.10
2018-08-27T17:14:58.752Z,99527.48
2018-08-27T17:17:27.082Z,99535.03
2018-08-27T17:19:58.974Z,99536.53
2018-08-27T17:22:25.303Z,99535.05
2018-08-27T17:24:52.374Z,99536.53
2018-08-27T17:27:23.532Z,99546.05
2018-08-27T17:29:53.579Z,99540.31
2018-08-27T17:32:21.197Z,99540.41
2018-08-27T17:34:53.600Z,99547.31
2018-08-27T17:37:22.049Z,99546.58
2018-08-27T17:39:50.210Z,99543.91
2018-08-27T17:42:16.548Z,99548.23
2018-08-27T17:44:45.143Z,99556.07
2018-08-27T17:47:16.172Z,99558.30
2018-08-27T17:49:42.397Z,99555.81
2018-08-27T17:52:09.659Z,99561.69
2018-08-27T17:54:36.870Z,99560.69
2018-08-27T17:57:08.869Z,99562.37
2018-08-27T17:59:39.406Z,99568.63
2018-08-27T18:02:08.083Z,99572.31
2018-08-27T18:07:06.175Z,99583.59
2018-08-27T18:09:32.124Z,99586.91
2018-08-27T18:11:58.080Z,99594.22
2018-08-27T18:14:24.094Z,99600.59
2018-08-27T18:16:50.121Z,99608.14
2018-08-27T18:19:16.074Z,99613.30
2018-08-27T18:21:42.138Z,99615.17
2018-08-27T18:24:08.114Z,99623.27
2018-08-27T18:26:34.167Z,99620.14
2018-08-27T18:29:00.185Z,99628.36
2018-08-27T18:31:26.271Z,99628.63
2018-08-27T18:33:52.237Z,99638.78
2018-08-27T18:36:18.186Z,99639.15
2018-08-27T18:38:44.195Z,99644.88
2018-08-27T18:41:10.227Z,99645.63
2018-08-27T18:43:36.189Z,99646.08
2018-08-27T18:46:02.657Z,99650.14
2018-08-27T18:48:28.629Z,99655.78
2018-08-27T18:50:54.573Z,99656.72
2018-08-27T18:53:20.536Z,99660.39
2018-08-27T18:55:46.616Z,99656.89
2018-08-27T18:58:12.588Z,99665.00
2018-08-27T19:00:38.637Z,99666.80
2018-08-27T19:03:04.553Z,99672.59
2018-08-27T19:05:30.717Z,99671.86
2018-08-27T19:07:56.624Z,99676.52
2018-08-27T19:10:22.625Z,99680.16
2018-08-27T19:12:48.658Z,99681.30
2018-08-27T19:15:14.669Z,99686.47
2018-08-27T19:17:41.022Z,99685.08
2018-08-27T19:20:07.091Z,99692.56
2018-08-27T19:22:33.069Z,99697.48
2018-08-27T19:24:59.034Z,99698.84
2018-08-27T19:27:25.019Z,99703.27
2018-08-27T19:29:51.055Z,99697.71
2018-08-27T19:32:17.001Z,99699.55
2018-08-27T19:34:43.019Z,99702.73
2018-08-27T19:37:09.187Z,99713.22
2018-08-27T19:39:35.064Z,99709.19
2018-08-27T19:42:00.969Z,99711.27
2018-08-27T19:44:26.940Z,99707.48
2018-08-27T19:46:52.977Z,99714.58
2018-08-27T19:49:18.978Z,99709.12
2018-08-27T19:51:44.963Z,99716.88
2018-08-27T19:54:10.925Z,99715.79
2018-08-27T19:56:36.925Z,99718.52
2018-08-27T19:59:02.891Z,99714.10
2018-08-27T20:01:28.862Z,99713.33
2018-08-27T20:03:54.839Z,99717.72
2018-08-27T20:06:20.929Z,99715.01
2018-08-27T20:08:46.796Z,99723.58
2018-08-27T20:11:12.785Z,99728.59
2018-08-27T20:13:38.753Z,99729.80
2018-08-27T20:16:04.734Z,99727.21
2018-08-27T20:18:30.744Z,99732.44
2018-08-27T20:20:56.729Z,99733.09
2018-08-27T20:23:22.703Z,99735.90
2018-08-27T20:25:48.722Z,99734.09
2018-08-27T20:28:14.650Z,99734.75
2018-08-27T20:30:40.675Z,99741.13
2018-08-27T20:33:06.746Z,99740.01
2018-08-27T20:35:32.595Z,99742.69
2018-08-27T20:37:58.525Z,99745.66
2018-08-27T20:40:24.490Z,99743.31
2018-08-27T20:42:50.455Z,99746.12
2018-08-27T20:45:16.464Z,99749.25
2018-08-27T20:47:42.396Z,99752.24
2018-08-27T20:50:08.403Z,99751.55
2018-08-27T20:52:34.391Z,99752.17
2018-08-27T20:55:00.362Z,99756.91
2018-08-27T20:57:26.309Z,99756.19
2018-08-27T20:59:52.278Z,99754.95
2018-08-27T21:02:18.233Z,99757.94
2018-08-27T21:04:44.197Z,99766.39
2018-08-27T21:07:10.161Z,99761.62
2018-08-27T21:09:36.119Z,99769.70
2018-08-27T21:12:02.066Z,99772.43
2018-08-27T21:14:28.027Z,99773.70
2018-08-27T21:16:54.005Z,99779.33
2018-08-27T21:19:21.107Z,99784.06
2018-08-27T21:21:47.073Z,99786.29
2018-08-27T21:24:13.014Z,99789.88
2018-08-27T21:26:39.056Z,99789.83
2018-08-27T21:29:04.962Z,99791.09
2018-08-27T21:31:30.920Z,99791.78
2018-08-27T21:33:56.884Z,99799.67
2018-08-27T21:36:22.842Z,99798.94
2018-08-27T21:38:48.802Z,99804.08
2018-08-27T21:41:14.743Z,99802.09
2018-08-27T21:43:40.713Z,99798.91
2018-08-27T21:46:06.655Z,99803.30
2018-08-27T21:48:32.620Z,99808.20
2018-08-27T21:50:58.583Z,99809.83
2018-08-27T21:53:24.529Z,99815.36
2018-08-27T21:55:50.615Z,99819.15
2018-08-27T21:58:16.545Z,99821.20
2018-08-27T22:00:42.497Z,99823.33
2018-08-27T22:03:08.467Z,99825.41
2018-08-27T22:05:34.416Z,99821.05
2018-08-27T22:08:00.388Z,99825.83
2018-08-27T22:10:26.332Z,99833.81
2018-08-27T22:12:52.339Z,99837.58
2018-08-27T22:15:18.271Z,99839.94
2018-08-27T22:17:44.212Z,99838.69
2018-08-27T22:20:10.184Z,99839.39
2018-08-27T22:22:36.168Z,99839.86
2018-08-27T22:25:02.124Z,99844.78
2018-08-27T22:27:28.078Z,99850.14
2018-08-27T22:29:54.027Z,99838.84
2018-08-27T22:32:19.981Z,99850.19
2018-08-27T22:34:45.921Z,99847.77
2018-08-27T22:37:11.900Z,99854.30
2018-08-27T22:39:37.869Z,99858.77
2018-08-27T22:42:03.815Z,99852.61
2018-08-27T22:44:29.775Z,99855.79
2018-08-27T22:46:55.731Z,99858.77
2018-08-27T22:49:21.718Z,99861.12
2018-08-27T22:51:47.658Z,99856.93
2018-08-27T22:54:13.607Z,99859.83
2018-08-27T22:56:39.600Z,99862.25
2018-08-27T22:59:05.548Z,99865.14
2018-08-27T23:01:31.488Z,99862.33
2018-08-27T23:03:57.469Z,99862.20
2018-08-27T23:06:23.398Z,99869.83
2018-08-27T23:08:49.370Z,99876.88
2018-08-27T23:11:15.353Z,99880.02
2018-08-27T23:13:41.319Z,99883.28
2018-08-27T23:16:07.289Z,99878.28
2018-08-27T23:18:33.266Z,99879.98
2018-08-27T23:20:59.216Z,99881.22
2018-08-27T23:23:25.166Z,99883.50
2018-08-27T23:25:51.129Z,99878.57
2018-08-27T23:28:17.109Z,99874.70
2018-08-27T23:30:43.088Z,99874.79
2018-08-27T23:33:09.070Z,99876.02
2018-08-27T23:35:35.020Z,99878.05
2018-08-27T23:38:01.231Z,99886.47
2018-08-27T23:40:27.180Z,99883.27
2018-08-27T23:42:53.132Z,99879.27
2018-08-27T23:45:19.442Z,99877.14
2018-08-27T23:47:45.379Z,99880.41
2018-08-27T23:50:11.359Z,99873.06
2018-08-27T23:52:37.285Z,99885.70
2018-08-27T23:55:03.264Z,99886.17
2018-08-27T23:57:29.227Z,99886.76
2018-08-27T23:59:55.171Z,99893.72
